sensor_id;sensor_type;location;lat;lon;timestamp;pressure;altitude;pressure_sealevel;temperature;humidity
8294;BME280;4185;41.506;24.938;2023-07-02T00:01:33;93023.22;;;18.67;98.79
8294;BME280;4185;41.506;24.938;2023-07-02T00:04:01;93025.41;;;18.76;98.79
8294;BME280;4185;41.506;24.938;2023-07-02T00:06:28;93017.34;;;18.85;97.81
8294;BME280;4185;41.506;24.938;2023-07-02T00:08:57;93014.41;;;18.98;97.45
8294;BME280;4185;41.506;24.938;2023-07-02T00:11:24;93007.78;;;19.01;96.66
8294;BME280;4185;41.506;24.938;2023-07-02T00:13:51;93007.06;;;18.93;96.64
8294;BME280;4185;41.506;24.938;2023-07-02T00:16:18;93001.22;;;18.82;97.19
8294;BME280;4185;41.506;24.938;2023-07-02T00:18:44;92997.72;;;18.74;97.41
8294;BME280;4185;41.506;24.938;2023-07-02T00:21:19;93008.91;;;18.68;98.37
8294;BME280;4185;41.506;24.938;2023-07-02T00:23:46;93005.41;;;18.68;98.44
8294;BME280;4185;41.506;24.938;2023-07-02T00:26:13;93010.75;;;18.58;99.10
8294;BME280;4185;41.506;24.938;2023-07-02T00:28:40;93019.91;;;18.61;98.34
8294;BME280;4185;41.506;24.938;2023-07-02T00:31:06;93021.19;;;18.67;98.08
8294;BME280;4185;41.506;24.938;2023-07-02T00:33:33;93023.75;;;18.73;98.36
8294;BME280;4185;41.506;24.938;2023-07-02T00:36:00;93014.25;;;18.74;99.47
8294;BME280;4185;41.506;24.938;2023-07-02T00:38:28;93019.91;;;18.68;99.26
8294;BME280;4185;41.506;24.938;2023-07-02T00:40:55;93022.84;;;18.63;99.81
8294;BME280;4185;41.506;24.938;2023-07-02T00:43:22;93026.50;;;18.58;99.18
8294;BME280;4185;41.506;24.938;2023-07-02T00:45:49;93026.84;;;18.54;100.00
8294;BME280;4185;41.506;24.938;2023-07-02T00:48:16;93022.28;;;18.57;100.00
8294;BME280;4185;41.506;24.938;2023-07-02T00:50:43;93022.84;;;18.55;99.58
8294;BME280;4185;41.506;24.938;2023-07-02T00:53:10;93021.75;;;18.58;99.63
8294;BME280;4185;41.506;24.938;2023-07-02T00:55:38;93026.13;;;18.61;100.00
8294;BME280;4185;41.506;24.938;2023-07-02T00:58:04;93028.88;;;18.61;99.89
8294;BME280;4185;41.506;24.938;2023-07-02T01:00:33;93025.03;;;18.57;99.91
8294;BME280;4185;41.506;24.938;2023-07-02T01:03:00;93022.66;;;18.61;99.75
8294;BME280;4185;41.506;24.938;2023-07-02T01:05:28;93020.25;;;18.57;99.84
8294;BME280;4185;41.506;24.938;2023-07-02T01:08:00;93012.00;;;18.57;100.00
8294;BME280;4185;41.506;24.938;2023-07-02T01:10:27;93012.19;;;18.59;100.00
8294;BME280;4185;41.506;24.938;2023-07-02T01:13:00;93009.63;;;18.61;99.44
8294;BME280;4185;41.506;24.938;2023-07-02T01:15:27;93016.25;;;18.58;99.31
8294;BME280;4185;41.506;24.938;2023-07-02T01:17:54;93013.28;;;18.56;98.89
8294;BME280;4185;41.506;24.938;2023-07-02T01:20:24;93007.41;;;18.52;98.83
8294;BME280;4185;41.506;24.938;2023-07-02T01:22:52;93012.19;;;18.44;99.75
8294;BME280;4185;41.506;24.938;2023-07-02T01:25:19;93014.38;;;18.46;99.78
8294;BME280;4185;41.506;24.938;2023-07-02T01:27:50;93017.34;;;18.55;99.46
8294;BME280;4185;41.506;24.938;2023-07-02T01:30:18;93008.69;;;18.59;98.69
8294;BME280;4185;41.506;24.938;2023-07-02T01:32:45;93008.53;;;18.49;99.05
8294;BME280;4185;41.506;24.938;2023-07-02T01:35:12;93016.38;;;18.45;99.34
8294;BME280;4185;41.506;24.938;2023-07-02T01:37:40;93002.63;;;18.45;99.52
8294;BME280;4185;41.506;24.938;2023-07-02T01:40:08;93002.63;;;18.45;99.37
8294;BME280;4185;41.506;24.938;2023-07-02T01:42:35;93003.34;;;18.38;98.36
8294;BME280;4185;41.506;24.938;2023-07-02T01:45:01;93002.22;;;18.26;98.04
8294;BME280;4185;41.506;24.938;2023-07-02T01:47:28;92993.75;;;18.16;99.21
8294;BME280;4185;41.506;24.938;2023-07-02T01:49:55;92990.66;;;18.20;99.22
8294;BME280;4185;41.506;24.938;2023-07-02T01:52:22;92980.94;;;18.19;99.34
8294;BME280;4185;41.506;24.938;2023-07-02T01:54:50;92985.91;;;18.20;99.13
8294;BME280;4185;41.506;24.938;2023-07-02T01:57:17;92986.44;;;18.19;99.42
8294;BME280;4185;41.506;24.938;2023-07-02T01:59:44;92990.66;;;18.20;99.35
8294;BME280;4185;41.506;24.938;2023-07-02T02:02:11;92982.25;;;18.18;99.08
8294;BME280;4185;41.506;24.938;2023-07-02T02:04:37;92981.31;;;18.15;99.28
8294;BME280;4185;41.506;24.938;2023-07-02T02:07:04;92992.84;;;18.14;99.72
8294;BME280;4185;41.506;24.938;2023-07-02T02:09:31;92977.25;;;18.16;99.60
8294;BME280;4185;41.506;24.938;2023-07-02T02:11:59;92975.25;;;18.17;99.02
8294;BME280;4185;41.506;24.938;2023-07-02T02:14:26;92975.06;;;18.15;98.94
8294;BME280;4185;41.506;24.938;2023-07-02T02:16:53;92975.44;;;18.11;98.97
8294;BME280;4185;41.506;24.938;2023-07-02T02:19:19;92979.81;;;18.07;98.05
8294;BME280;4185;41.506;24.938;2023-07-02T02:21:46;92976.69;;;17.95;98.16
8294;BME280;4185;41.506;24.938;2023-07-02T02:24:13;92974.63;;;17.88;98.51
8294;BME280;4185;41.506;24.938;2023-07-02T02:26:39;92980.47;;;17.77;98.09
8294;BME280;4185;41.506;24.938;2023-07-02T02:29:08;92986.31;;;17.74;98.61
8294;BME280;4185;41.506;24.938;2023-07-02T02:31:34;92992.88;;;17.71;98.97
8294;BME280;4185;41.506;24.938;2023-07-02T02:34:01;92981.38;;;17.72;99.04
8294;BME280;4185;41.506;24.938;2023-07-02T02:36:28;92980.63;;;17.72;99.27
8294;BME280;4185;41.506;24.938;2023-07-02T02:38:55;92983.38;;;17.72;98.89
8294;BME280;4185;41.506;24.938;2023-07-02T02:41:21;92999.84;;;17.72;99.56
8294;BME280;4185;41.506;24.938;2023-07-02T02:43:48;93003.16;;;17.70;100.00
8294;BME280;4185;41.506;24.938;2023-07-02T02:46:22;93004.25;;;17.75;100.00
8294;BME280;4185;41.506;24.938;2023-07-02T02:48:49;93002.06;;;17.81;99.77
8294;BME280;4185;41.506;24.938;2023-07-02T02:51:17;93011.81;;;17.89;99.17
8294;BME280;4185;41.506;24.938;2023-07-02T02:53:43;93010.91;;;17.94;98.95
8294;BME280;4185;41.506;24.938;2023-07-02T02:56:11;93006.72;;;17.93;99.30
8294;BME280;4185;41.506;24.938;2023-07-02T02:58:38;93009.25;;;17.91;99.96
8294;BME280;4185;41.506;24.938;2023-07-02T03:01:05;93004.13;;;17.88;100.00
8294;BME280;4185;41.506;24.938;2023-07-02T03:03:38;93001.38;;;17.88;100.00
8294;BME280;4185;41.506;24.938;2023-07-02T03:06:05;93003.75;;;17.84;100.00
8294;BME280;4185;41.506;24.938;2023-07-02T03:08:31;93008.72;;;17.85;100.00
8294;BME280;4185;41.506;24.938;2023-07-02T03:10:58;93009.78;;;17.82;100.00
8294;BME280;4185;41.506;24.938;2023-07-02T03:13:25;93006.13;;;17.80;100.00
8294;BME280;4185;41.506;24.938;2023-07-02T03:15:51;92996.22;;;17.77;100.00
8294;BME280;4185;41.506;24.938;2023-07-02T03:18:18;93002.06;;;17.73;100.00
8294;BME280;4185;41.506;24.938;2023-07-02T03:20:46;93008.66;;;17.78;100.00
8294;BME280;4185;41.506;24.938;2023-07-02T03:23:13;93002.81;;;17.74;100.00
8294;BME280;4185;41.506;24.938;2023-07-02T03:25:40;92999.84;;;17.72;100.00
8294;BME280;4185;41.506;24.938;2023-07-02T03:28:06;93003.88;;;17.71;100.00
8294;BME280;4185;41.506;24.938;2023-07-02T03:30:33;93003.91;;;17.78;100.00
8294;BME280;4185;41.506;24.938;2023-07-02T03:33:00;93003.94;;;17.86;100.00
8294;BME280;4185;41.506;24.938;2023-07-02T03:35:26;92997.16;;;17.87;100.00
8294;BME280;4185;41.506;24.938;2023-07-02T03:37:55;93000.06;;;17.81;100.00
8294;BME280;4185;41.506;24.938;2023-07-02T03:40:22;93003.16;;;17.78;100.00
8294;BME280;4185;41.506;24.938;2023-07-02T03:42:49;93006.13;;;17.80;100.00
8294;BME280;4185;41.506;24.938;2023-07-02T03:45:16;93007.56;;;17.81;100.00
8294;BME280;4185;41.506;24.938;2023-07-02T03:47:43;93017.09;;;17.80;100.00
8294;BME280;4185;41.506;24.938;2023-07-02T03:50:09;93020.94;;;17.77;100.00
8294;BME280;4185;41.506;24.938;2023-07-02T03:52:36;93017.25;;;17.74;100.00
8294;BME280;4185;41.506;24.938;2023-07-02T03:55:05;93011.59;;;17.80;100.00
8294;BME280;4185;41.506;24.938;2023-07-02T03:57:32;93012.91;;;17.79;100.00
8294;BME280;4185;41.506;24.938;2023-07-02T03:59:59;93010.09;;;17.71;100.00
8294;BME280;4185;41.506;24.938;2023-07-02T04:02:26;93006.25;;;17.67;100.00
8294;BME280;4185;41.506;24.938;2023-07-02T04:04:52;93001.66;;;17.62;100.00
8294;BME280;4185;41.506;24.938;2023-07-02T04:07:19;93009.69;;;17.60;100.00
8294;BME280;4185;41.506;24.938;2023-07-02T04:09:46;93011.53;;;17.65;100.00
8294;BME280;4185;41.506;24.938;2023-07-02T04:12:14;93013.41;;;17.70;100.00
8294;BME280;4185;41.506;24.938;2023-07-02T04:14:40;93023.28;;;17.73;100.00
8294;BME280;4185;41.506;24.938;2023-07-02T04:17:07;93027.34;;;17.79;100.00
8294;BME280;4185;41.506;24.938;2023-07-02T04:19:34;93032.56;;;17.98;99.86
8294;BME280;4185;41.506;24.938;2023-07-02T04:22:01;93019.75;;;18.08;99.01
8294;BME280;4185;41.506;24.938;2023-07-02T04:24:27;93014.66;;;18.12;98.23
8294;BME280;4185;41.506;24.938;2023-07-02T04:26:54;93015.53;;;18.07;98.23
8294;BME280;4185;41.506;24.938;2023-07-02T04:29:22;93020.66;;;18.03;98.47
8294;BME280;4185;41.506;24.938;2023-07-02T04:31:49;93026.91;;;18.03;98.69
8294;BME280;4185;41.506;24.938;2023-07-02T04:34:16;93021.94;;;18.02;99.28
8294;BME280;4185;41.506;24.938;2023-07-02T04:36:43;93014.63;;;18.04;99.30
8294;BME280;4185;41.506;24.938;2023-07-02T04:39:10;93020.19;;;18.27;97.95
8294;BME280;4185;41.506;24.938;2023-07-02T04:41:36;93036.03;;;18.42;96.77
8294;BME280;4185;41.506;24.938;2023-07-02T04:44:03;93030.91;;;18.53;96.18
8294;BME280;4185;41.506;24.938;2023-07-02T04:46:32;93025.41;;;18.68;95.35
8294;BME280;4185;41.506;24.938;2023-07-02T04:49:00;93021.75;;;18.73;94.96
8294;BME280;4185;41.506;24.938;2023-07-02T04:51:26;93025.97;;;18.74;95.17
8294;BME280;4185;41.506;24.938;2023-07-02T04:53:53;93026.88;;;18.84;95.19
8294;BME280;4185;41.506;24.938;2023-07-02T04:56:20;93031.31;;;18.87;95.16
8294;BME280;4185;41.506;24.938;2023-07-02T04:58:47;93018.09;;;18.93;95.40
8294;BME280;4185;41.506;24.938;2023-07-02T05:01:14;93022.47;;;18.96;94.58
8294;BME280;4185;41.506;24.938;2023-07-02T05:03:42;93015.72;;;18.97;94.78
8294;BME280;4185;41.506;24.938;2023-07-02T05:06:08;93018.81;;;18.86;96.04
8294;BME280;4185;41.506;24.938;2023-07-02T05:08:35;93014.94;;;18.74;96.12
8294;BME280;4185;41.506;24.938;2023-07-02T05:11:02;93018.06;;;18.71;98.23
8294;BME280;4185;41.506;24.938;2023-07-02T05:13:29;93022.50;;;18.74;98.26
8294;BME280;4185;41.506;24.938;2023-07-02T05:15:55;93026.31;;;18.71;97.63
8294;BME280;4185;41.506;24.938;2023-07-02T05:18:22;93033.31;;;18.72;97.17
8294;BME280;4185;41.506;24.938;2023-07-02T05:20:50;93031.28;;;18.72;97.98
8294;BME280;4185;41.506;24.938;2023-07-02T05:23:17;93024.69;;;18.75;98.35
8294;BME280;4185;41.506;24.938;2023-07-02T05:25:43;93024.50;;;18.88;98.63
8294;BME280;4185;41.506;24.938;2023-07-02T05:28:11;93026.72;;;19.12;96.48
8294;BME280;4185;41.506;24.938;2023-07-02T05:30:38;93028.13;;;19.28;95.71
8294;BME280;4185;41.506;24.938;2023-07-02T05:33:05;93028.69;;;19.42;94.95
8294;BME280;4185;41.506;24.938;2023-07-02T05:35:32;93018.94;;;19.56;93.22
8294;BME280;4185;41.506;24.938;2023-07-02T05:38:00;93012.13;;;19.65;92.71
8294;BME280;4185;41.506;24.938;2023-07-02T05:40:26;93013.56;;;19.73;91.53
8294;BME280;4185;41.506;24.938;2023-07-02T05:42:53;93015.19;;;19.84;91.12
8294;BME280;4185;41.506;24.938;2023-07-02T05:45:20;93006.31;;;19.93;90.87
8294;BME280;4185;41.506;24.938;2023-07-02T05:47:48;93008.66;;;20.04;89.86
8294;BME280;4185;41.506;24.938;2023-07-02T05:50:15;93012.31;;;20.14;89.01
8294;BME280;4185;41.506;24.938;2023-07-02T05:52:42;93011.22;;;20.17;88.16
8294;BME280;4185;41.506;24.938;2023-07-02T05:55:10;93013.31;;;20.33;87.56
8294;BME280;4185;41.506;24.938;2023-07-02T05:57:37;93008.28;;;20.47;87.23
8294;BME280;4185;41.506;24.938;2023-07-02T06:00:05;93008.00;;;20.60;86.70
8294;BME280;4185;41.506;24.938;2023-07-02T06:02:32;93008.69;;;20.68;85.97
8294;BME280;4185;41.506;24.938;2023-07-02T06:04:59;93011.78;;;20.72;85.52
8294;BME280;4185;41.506;24.938;2023-07-02T06:07:27;93012.63;;;20.82;85.11
8294;BME280;4185;41.506;24.938;2023-07-02T06:09:54;93009.66;;;20.88;83.61
8294;BME280;4185;41.506;24.938;2023-07-02T06:12:22;93001.31;;;20.95;84.69
8294;BME280;4185;41.506;24.938;2023-07-02T06:14:48;93009.81;;;21.14;83.00
8294;BME280;4185;41.506;24.938;2023-07-02T06:17:15;93014.31;;;21.27;82.73
8294;BME280;4185;41.506;24.938;2023-07-02T06:19:43;93007.66;;;21.30;83.56
8294;BME280;4185;41.506;24.938;2023-07-02T06:22:10;93010.09;;;21.26;83.53
8294;BME280;4185;41.506;24.938;2023-07-02T06:24:37;93010.03;;;21.33;82.97
8294;BME280;4185;41.506;24.938;2023-07-02T06:27:04;92998.81;;;21.48;82.91
8294;BME280;4185;41.506;24.938;2023-07-02T06:29:32;93011.19;;;21.64;82.77
8294;BME280;4185;41.506;24.938;2023-07-02T06:31:59;93007.13;;;21.65;82.85
8294;BME280;4185;41.506;24.938;2023-07-02T06:34:26;92997.53;;;21.84;83.52
8294;BME280;4185;41.506;24.938;2023-07-02T06:36:53;93002.34;;;22.00;81.55
8294;BME280;4185;41.506;24.938;2023-07-02T06:39:19;93006.94;;;22.15;79.48
8294;BME280;4185;41.506;24.938;2023-07-02T06:41:46;92995.34;;;22.26;79.38
8294;BME280;4185;41.506;24.938;2023-07-02T06:44:13;92993.41;;;22.36;78.08
8294;BME280;4185;41.506;24.938;2023-07-02T06:46:41;92985.13;;;22.45;76.85
8294;BME280;4185;41.506;24.938;2023-07-02T06:49:08;92981.53;;;22.52;76.21
8294;BME280;4185;41.506;24.938;2023-07-02T06:51:34;92981.59;;;22.62;75.94
8294;BME280;4185;41.506;24.938;2023-07-02T06:54:01;92981.50;;;22.69;74.85
8294;BME280;4185;41.506;24.938;2023-07-02T06:56:28;92976.66;;;22.70;75.51
8294;BME280;4185;41.506;24.938;2023-07-02T06:58:55;92979.06;;;22.83;74.92
8294;BME280;4185;41.506;24.938;2023-07-02T07:01:21;92974.44;;;22.95;73.43
8294;BME280;4185;41.506;24.938;2023-07-02T07:03:50;92977.25;;;23.05;73.82
8294;BME280;4185;41.506;24.938;2023-07-02T07:06:16;92970.28;;;23.13;74.52
8294;BME280;4185;41.506;24.938;2023-07-02T07:08:43;92973.78;;;23.23;72.40
8294;BME280;4185;41.506;24.938;2023-07-02T07:11:10;92975.16;;;23.32;71.45
8294;BME280;4185;41.506;24.938;2023-07-02T07:13:37;92965.25;;;23.38;71.05
8294;BME280;4185;41.506;24.938;2023-07-02T07:16:03;92958.84;;;23.45;69.84
8294;BME280;4185;41.506;24.938;2023-07-02T07:18:30;92969.50;;;23.49;69.94
8294;BME280;4185;41.506;24.938;2023-07-02T07:20:58;92967.44;;;23.59;68.77
8294;BME280;4185;41.506;24.938;2023-07-02T07:23:25;92964.41;;;23.64;65.39
8294;BME280;4185;41.506;24.938;2023-07-02T07:25:52;92965.84;;;23.65;63.64
8294;BME280;4185;41.506;24.938;2023-07-02T07:28:18;92974.00;;;23.63;65.10
8294;BME280;4185;41.506;24.938;2023-07-02T07:30:45;92965.69;;;23.63;66.07
8294;BME280;4185;41.506;24.938;2023-07-02T07:33:12;92962.19;;;23.82;66.12
8294;BME280;4185;41.506;24.938;2023-07-02T07:35:39;92962.94;;;24.01;65.56
8294;BME280;4185;41.506;24.938;2023-07-02T07:38:07;92959.28;;;24.18;65.09
8294;BME280;4185;41.506;24.938;2023-07-02T07:40:34;92963.50;;;24.29;63.95
8294;BME280;4185;41.506;24.938;2023-07-02T07:43:01;92960.38;;;24.44;63.90
8294;BME280;4185;41.506;24.938;2023-07-02T07:45:27;92960.06;;;24.49;61.74
8294;BME280;4185;41.506;24.938;2023-07-02T07:47:54;92961.44;;;24.39;61.67
8294;BME280;4185;41.506;24.938;2023-07-02T07:50:21;92969.75;;;24.39;62.87
8294;BME280;4185;41.506;24.938;2023-07-02T07:52:48;92963.97;;;24.56;61.33
8294;BME280;4185;41.506;24.938;2023-07-02T07:55:16;92951.94;;;24.82;60.19
8294;BME280;4185;41.506;24.938;2023-07-02T07:57:43;92953.03;;;24.98;58.41
8294;BME280;4185;41.506;24.938;2023-07-02T08:00:10;92956.50;;;25.08;57.16
8294;BME280;4185;41.506;24.938;2023-07-02T08:02:37;92954.13;;;25.14;56.83
8294;BME280;4185;41.506;24.938;2023-07-02T08:05:05;92956.91;;;25.14;56.37
8294;BME280;4185;41.506;24.938;2023-07-02T08:07:32;92953.13;;;25.09;56.74
8294;BME280;4185;41.506;24.938;2023-07-02T08:09:59;92949.09;;;25.22;56.82
8294;BME280;4185;41.506;24.938;2023-07-02T08:12:29;92950.34;;;25.40;57.50
8294;BME280;4185;41.506;24.938;2023-07-02T08:14:56;92947.34;;;25.48;56.46
8294;BME280;4185;41.506;24.938;2023-07-02T08:17:22;92950.34;;;25.40;56.16
8294;BME280;4185;41.506;24.938;2023-07-02T08:19:49;92943.44;;;25.41;56.84
8294;BME280;4185;41.506;24.938;2023-07-02T08:22:16;92949.00;;;25.41;57.15
8294;BME280;4185;41.506;24.938;2023-07-02T08:24:42;92948.47;;;25.33;58.18
8294;BME280;4185;41.506;24.938;2023-07-02T08:27:09;92945.94;;;25.37;60.05
8294;BME280;4185;41.506;24.938;2023-07-02T08:29:40;92945.81;;;25.35;59.66
8294;BME280;4185;41.506;24.938;2023-07-02T08:32:07;92947.44;;;25.38;58.52
8294;BME280;4185;41.506;24.938;2023-07-02T08:34:34;92947.81;;;25.44;56.94
8294;BME280;4185;41.506;24.938;2023-07-02T08:37:01;92949.34;;;25.57;55.99
8294;BME280;4185;41.506;24.938;2023-07-02T08:39:28;92945.69;;;25.54;55.13
8294;BME280;4185;41.506;24.938;2023-07-02T08:41:54;92949.81;;;25.53;56.15
8294;BME280;4185;41.506;24.938;2023-07-02T08:44:21;92947.53;;;25.61;56.05
8294;BME280;4185;41.506;24.938;2023-07-02T08:46:50;92940.91;;;25.66;55.60
8294;BME280;4185;41.506;24.938;2023-07-02T08:49:18;92956.50;;;25.81;56.65
8294;BME280;4185;41.506;24.938;2023-07-02T08:51:46;92949.44;;;25.80;56.64
8294;BME280;4185;41.506;24.938;2023-07-02T08:54:13;92954.78;;;25.76;55.93
8294;BME280;4185;41.506;24.938;2023-07-02T08:56:41;92960.19;;;25.74;56.47
8294;BME280;4185;41.506;24.938;2023-07-02T08:59:08;92952.47;;;25.72;57.41
8294;BME280;4185;41.506;24.938;2023-07-02T09:01:44;92957.16;;;25.70;57.71
8294;BME280;4185;41.506;24.938;2023-07-02T09:04:16;92961.72;;;25.65;56.96
8294;BME280;4185;41.506;24.938;2023-07-02T09:06:43;92957.47;;;25.64;56.10
8294;BME280;4185;41.506;24.938;2023-07-02T09:09:10;92947.81;;;25.65;55.47
8294;BME280;4185;41.506;24.938;2023-07-02T09:11:46;92950.75;;;25.67;55.13
8294;BME280;4185;41.506;24.938;2023-07-02T09:14:23;92954.81;;;25.66;55.81
8294;BME280;4185;41.506;24.938;2023-07-02T09:17:01;92948.19;;;25.71;55.45
8294;BME280;4185;41.506;24.938;2023-07-02T09:19:29;92953.34;;;25.86;54.69
8294;BME280;4185;41.506;24.938;2023-07-02T09:21:57;92938.16;;;25.99;55.14
8294;BME280;4185;41.506;24.938;2023-07-02T09:24:26;92929.50;;;26.04;56.35
8294;BME280;4185;41.506;24.938;2023-07-02T09:26:55;92943.06;;;26.10;58.19
8294;BME280;4185;41.506;24.938;2023-07-02T09:29:23;92934.94;;;26.02;58.57
8294;BME280;4185;41.506;24.938;2023-07-02T09:31:51;92934.66;;;25.98;57.47
8294;BME280;4185;41.506;24.938;2023-07-02T09:34:18;92922.66;;;25.96;59.15
8294;BME280;4185;41.506;24.938;2023-07-02T09:36:47;92935.06;;;26.04;59.39
8294;BME280;4185;41.506;24.938;2023-07-02T09:39:18;92935.34;;;26.20;59.31
8294;BME280;4185;41.506;24.938;2023-07-02T09:41:48;92937.31;;;26.29;58.61
8294;BME280;4185;41.506;24.938;2023-07-02T09:44:17;92945.31;;;26.34;58.60
8294;BME280;4185;41.506;24.938;2023-07-02T09:46:48;92936.13;;;26.43;56.81
8294;BME280;4185;41.506;24.938;2023-07-02T09:49:17;92935.66;;;26.47;57.72
8294;BME280;4185;41.506;24.938;2023-07-02T09:51:49;92942.72;;;26.60;57.09
8294;BME280;4185;41.506;24.938;2023-07-02T09:54:16;92938.03;;;26.74;56.58
8294;BME280;4185;41.506;24.938;2023-07-02T09:56:45;92943.84;;;26.78;56.38
8294;BME280;4185;41.506;24.938;2023-07-02T09:59:12;92935.47;;;26.78;54.39
8294;BME280;4185;41.506;24.938;2023-07-02T10:01:39;92933.06;;;26.84;53.74
8294;BME280;4185;41.506;24.938;2023-07-02T10:04:13;92932.94;;;26.82;53.94
8294;BME280;4185;41.506;24.938;2023-07-02T10:06:44;92928.09;;;26.94;53.76
8294;BME280;4185;41.506;24.938;2023-07-02T10:09:13;92937.44;;;26.87;53.79
8294;BME280;4185;41.506;24.938;2023-07-02T10:11:40;92930.88;;;26.71;53.45
8294;BME280;4185;41.506;24.938;2023-07-02T10:14:06;92935.19;;;26.51;53.26
8294;BME280;4185;41.506;24.938;2023-07-02T10:16:33;92936.13;;;26.43;54.07
8294;BME280;4185;41.506;24.938;2023-07-02T10:19:09;92927.66;;;26.41;55.09
8294;BME280;4185;41.506;24.938;2023-07-02T10:21:36;92925.69;;;26.32;55.35
8294;BME280;4185;41.506;24.938;2023-07-02T10:24:10;92923.50;;;26.19;54.32
8294;BME280;4185;41.506;24.938;2023-07-02T10:26:39;92921.91;;;26.16;55.07
8294;BME280;4185;41.506;24.938;2023-07-02T10:29:06;92927.59;;;26.18;55.51
8294;BME280;4185;41.506;24.938;2023-07-02T10:31:33;92919.19;;;26.39;55.03
8294;BME280;4185;41.506;24.938;2023-07-02T10:34:00;92920.22;;;26.79;54.60
8294;BME280;4185;41.506;24.938;2023-07-02T10:36:26;92914.63;;;27.02;54.61
8294;BME280;4185;41.506;24.938;2023-07-02T10:38:53;92911.63;;;27.09;54.30
8294;BME280;4185;41.506;24.938;2023-07-02T10:41:24;92905.31;;;27.09;54.92
8294;BME280;4185;41.506;24.938;2023-07-02T10:43:53;92905.53;;;27.13;54.88
8294;BME280;4185;41.506;24.938;2023-07-02T10:46:20;92906.63;;;27.31;54.61
8294;BME280;4185;41.506;24.938;2023-07-02T10:48:54;92907.34;;;27.43;53.90
8294;BME280;4185;41.506;24.938;2023-07-02T10:51:21;92903.91;;;27.56;54.05
8294;BME280;4185;41.506;24.938;2023-07-02T10:53:56;92906.25;;;27.48;53.04
8294;BME280;4185;41.506;24.938;2023-07-02T10:56:24;92904.19;;;27.37;52.56
8294;BME280;4185;41.506;24.938;2023-07-02T10:58:52;92904.81;;;27.35;53.51
8294;BME280;4185;41.506;24.938;2023-07-02T11:01:23;92900.44;;;27.21;54.30
8294;BME280;4185;41.506;24.938;2023-07-02T11:03:55;92898.88;;;26.95;55.83
8294;BME280;4185;41.506;24.938;2023-07-02T11:06:22;92906.16;;;26.77;56.98
8294;BME280;4185;41.506;24.938;2023-07-02T11:08:49;92900.13;;;26.69;56.79
8294;BME280;4185;41.506;24.938;2023-07-02T11:11:16;92900.34;;;26.73;57.32
8294;BME280;4185;41.506;24.938;2023-07-02T11:13:46;92892.84;;;26.75;56.98
8294;BME280;4185;41.506;24.938;2023-07-02T11:16:26;92896.69;;;27.05;56.23
8294;BME280;4185;41.506;24.938;2023-07-02T11:19:06;92914.38;;;27.21;56.03
8294;BME280;4185;41.506;24.938;2023-07-02T11:21:33;92904.31;;;27.39;55.26
8294;BME280;4185;41.506;24.938;2023-07-02T11:24:03;92888.16;;;27.49;54.29
8294;BME280;4185;41.506;24.938;2023-07-02T11:26:35;92889.59;;;27.62;54.18
8294;BME280;4185;41.506;24.938;2023-07-02T11:29:02;92888.59;;;27.57;54.84
8294;BME280;4185;41.506;24.938;2023-07-02T11:31:30;92888.72;;;27.59;54.65
8294;BME280;4185;41.506;24.938;2023-07-02T11:33:56;92898.19;;;27.54;55.10
8294;BME280;4185;41.506;24.938;2023-07-02T11:36:24;92880.19;;;27.32;55.60
8294;BME280;4185;41.506;24.938;2023-07-02T11:38:51;92878.63;;;27.29;55.85
8294;BME280;4185;41.506;24.938;2023-07-02T11:41:19;92884.19;;;27.29;57.46
8294;BME280;4185;41.506;24.938;2023-07-02T11:43:46;92881.88;;;27.25;56.55
8294;BME280;4185;41.506;24.938;2023-07-02T11:46:13;92880.19;;;27.32;56.15
8294;BME280;4185;41.506;24.938;2023-07-02T11:48:42;92886.00;;;27.36;56.42
8294;BME280;4185;41.506;24.938;2023-07-02T11:51:09;92886.34;;;27.42;55.69
8294;BME280;4185;41.506;24.938;2023-07-02T11:53:36;92877.22;;;27.53;55.42
8294;BME280;4185;41.506;24.938;2023-07-02T11:56:02;92876.66;;;27.80;54.66
8294;BME280;4185;41.506;24.938;2023-07-02T11:58:29;92873.00;;;27.77;54.20
8294;BME280;4185;41.506;24.938;2023-07-02T12:00:56;92867.25;;;27.98;54.44
8294;BME280;4185;41.506;24.938;2023-07-02T12:03:23;92867.94;;;28.24;54.13
8294;BME280;4185;41.506;24.938;2023-07-02T12:05:51;92860.50;;;28.28;52.77
8294;BME280;4185;41.506;24.938;2023-07-02T12:08:17;92885.03;;;28.30;52.28
8294;BME280;4185;41.506;24.938;2023-07-02T12:10:44;92871.38;;;27.97;52.05
8294;BME280;4185;41.506;24.938;2023-07-02T12:13:11;92870.59;;;28.08;52.01
8294;BME280;4185;41.506;24.938;2023-07-02T12:15:38;92873.59;;;28.12;50.93
8294;BME280;4185;41.506;24.938;2023-07-02T12:18:04;92867.22;;;28.23;50.99
8294;BME280;4185;41.506;24.938;2023-07-02T12:20:31;92859.59;;;28.37;50.19
8294;BME280;4185;41.506;24.938;2023-07-02T12:22:59;92862.94;;;28.47;49.73
8294;BME280;4185;41.506;24.938;2023-07-02T12:25:26;92878.72;;;28.54;51.08
8294;BME280;4185;41.506;24.938;2023-07-02T12:27:53;92859.25;;;28.56;50.24
8294;BME280;4185;41.506;24.938;2023-07-02T12:30:20;92856.78;;;28.62;50.65
8294;BME280;4185;41.506;24.938;2023-07-02T12:32:46;92874.47;;;28.28;52.02
8294;BME280;4185;41.506;24.938;2023-07-02T12:35:13;92868.47;;;27.95;52.72
8294;BME280;4185;41.506;24.938;2023-07-02T12:37:44;92880.00;;;28.15;52.06
8294;BME280;4185;41.506;24.938;2023-07-02T12:40:12;92897.75;;;27.83;52.55
8294;BME280;4185;41.506;24.938;2023-07-02T12:42:40;92888.59;;;27.69;52.84
8294;BME280;4185;41.506;24.938;2023-07-02T12:45:08;92897.47;;;27.53;53.43
8294;BME280;4185;41.506;24.938;2023-07-02T12:47:35;92883.03;;;27.57;53.16
8294;BME280;4185;41.506;24.938;2023-07-02T12:50:02;92871.22;;;27.70;53.14
8294;BME280;4185;41.506;24.938;2023-07-02T12:52:29;92877.09;;;28.13;51.94
8294;BME280;4185;41.506;24.938;2023-07-02T12:54:56;92866.91;;;28.17;51.25
8294;BME280;4185;41.506;24.938;2023-07-02T12:57:24;92871.53;;;28.13;50.73
8294;BME280;4185;41.506;24.938;2023-07-02T12:59:51;92861.19;;;28.15;50.80
8294;BME280;4185;41.506;24.938;2023-07-02T13:02:18;92859.59;;;28.37;50.69
8294;BME280;4185;41.506;24.938;2023-07-02T13:04:45;92857.34;;;28.47;50.98
8294;BME280;4185;41.506;24.938;2023-07-02T13:07:12;92866.31;;;28.85;50.57
8294;BME280;4185;41.506;24.938;2023-07-02T13:09:38;92857.53;;;28.90;48.85
8294;BME280;4185;41.506;24.938;2023-07-02T13:12:06;92842.09;;;28.75;48.95